• Join FlightAware (Why Join?)
  • Login
  • US Flag 
08:52AM EDT


 

Airport Tracker/Info


-or-


 

Live Flight TrackerFlight Track Log ✈ RPA3242 ✈ 17-Sep-2013 ✈ KDTW - KPHL

Flight Track Log - Related Links

Times and Time Zones

All times are in EDT time to prevent confusion due to time zone crossing. See the RPA3242 flight status page for this flight to view local times or setup timezone preferences in your user account.

Time Position Orientation Groundspeed Altitude Reporting Facility
EDT Latitude Longitude Course Direction KTS MPH feet Rate Location/Type
06:29PM 42.2039 -83.3697 96° East 153 176 1,500  Level Cleveland Center
06:29PM 42.1994 -83.3717 198° South 149 171 1,700 1,740 Climbing Cleveland Center
06:30PM 42.1511 -83.3733 181° South 209 241 3,500 1,860 Climbing Cleveland Center
06:31PM 42.1231 -82.9900 90° East  Level Estimated
06:31PM 42.1297 -83.3711 176° South 199 229 4,400  Level Cleveland Center
06:31PM 42.0914 -83.3594 167° South 237 273 6,200 2,580 Climbing Cleveland Center
06:32PM 42.0930 -82.8690 90° East  Level Estimated
06:32PM 42.0775 -83.3250 119° Southeast 246 283 7,100  Level Cleveland Center
06:33PM 42.0629 -82.7483 90° East  Level Estimated
06:33PM 42.0728 -83.2192 93° East 280 322 9,800  Level Cleveland Center
06:34PM 42.0326 -82.6276 96° East  Level Estimated
06:34PM 42.0914 -83.1097 77° East 317 365 10,000  Level Cleveland Center
06:35PM 42.1189 -82.9706 75° East 323 372 11,000 1,680 Climbing Cleveland Center
06:36PM 42.1439 -82.8522 74° East 330 380 13,500 2,400 Climbing Cleveland Center
06:37PM 42.1681 -82.7283 75° East 341 392 16,000 2,160 Climbing Cleveland Center
06:38PM 42.1928 -82.6014 75° East 350 403 18,000 1,980 Climbing Cleveland Center
06:39PM 42.2192 -82.4689 75° East 366 421 20,100 1,920 Climbing Cleveland Center
06:40PM 42.2150 -82.3261 92° East 387 445 22,000 1,920 Climbing Cleveland Center
06:41PM 42.2022 -82.1461 95° East 400 460 24,100 1,740 Climbing Cleveland Center
06:42PM 42.1922 -82.0003 95° East 411 473 25,700 1,500 Climbing Cleveland Center
06:43PM 42.1311 -81.8639 121° Southeast 431 496 27,200 1,380 Climbing Cleveland Center
06:44PM 42.0369 -81.7589 140° Southeast 436 502 28,600 1,440 Climbing Cleveland Center
06:45PM 41.9286 -81.6350 140° Southeast 434 499 30,200 1,140 Climbing Cleveland Center
06:46PM 41.8342 -81.5253 139° Southeast 442 509 31,000 360 Climbing Cleveland Center
06:47PM 41.7369 -81.4142 140° Southeast 451 519 31,000  Level Cleveland Center
06:48PM 41.6400 -81.3042 140° Southeast 451 519 31,000  Level Cleveland Center
06:49PM 41.5425 -81.1936 140° Southeast 452 520 31,000  Level Cleveland Center
06:50PM 41.4511 -81.0744 136° Southeast 453 521 31,000  Level Cleveland Center
06:51PM 41.3636 -80.9500 133° Southeast 453 521 31,000  Level Cleveland Center
06:52PM 41.2736 -80.8289 135° Southeast 454 522 31,000  Level Cleveland Center
06:53PM 41.1853 -80.7056 134° Southeast 454 522 31,000  Level Cleveland Center
06:54PM 41.0917 -80.5781 134° Southeast 459 528 31,000  Level Cleveland Center
06:55PM 41.0033 -80.4558 134° Southeast 459 528 31,000  Level Cleveland Center
06:56PM 40.9156 -80.3339 134° Southeast 458 527 31,000  Level Cleveland Center
06:58PM 40.8225 -80.2031 133° Southeast 461 531 31,000  Level Cleveland Center
06:59PM 40.7567 -80.0261 116° Southeast 454 522 31,000  Level Cleveland Center
07:00PM 40.7036 -79.8800 116° Southeast 455 524 31,000  Level Cleveland Center
07:01PM 40.6486 -79.7306 116° Southeast 452 520 31,000  Level Cleveland Center
07:02PM 40.5956 -79.5806 115° Southeast 450 518 31,000  Level Cleveland Center
07:03PM 40.5725 -79.4206 101° East 445 512 31,000  Level Cleveland Center
07:04PM 40.5528 -79.2344 98° East 443 510 31,000  Level Cleveland Center
07:05PM 40.5364 -79.0753 98° East 444 511 31,000  Level Cleveland Center
07:06PM 40.5178 -78.9156 99° East 447 514 31,000  Level Cleveland Center
07:07PM 40.5014 -78.7572 98° East 446 513 31,000 -540 Level Cleveland Center
07:08PM 40.4800 -78.5678 98° East 443 510 30,000 -1,260 Descending Cleveland Center
07:09PM 40.4636 -78.4142 98° East 434 499 28,500 -1,440 Descending Cleveland Center
07:10PM 40.4467 -78.2658 98° East 421 484 27,100 -1,500 Descending Cleveland Center
07:11PM 40.4286 -78.1225 99° East 419 482 25,700 -1,140 Descending New York Center
07:12PM 40.4125 -77.9789 98° East 407 468 25,000 -360 Descending New York Center
07:13PM 40.3961 -77.8356 98° East 401 461 25,000 -300 Level New York Center
07:14PM 40.3775 -77.6919 100° East 396 456 24,500 -1,020 Descending New York Center
07:15PM 40.3511 -77.5339 102° East 411 473 23,000 -1,560 Descending New York Center
07:16PM 40.3222 -77.3811 104° East 427 491 21,400 -1,680 Descending New York Center
07:17PM 40.2931 -77.2314 104° East 427 491 19,700 -1,560 Descending New York Center
07:18PM 40.2692 -77.0958 103° East 427 491 18,300 -900 Descending New York Center
07:19PM 40.2433 -76.9547 103° East 420 483 18,000 -240 Descending New York Center
07:20PM 40.2158 -76.8028 103° East 420 483 17,900 -780 Descending New York Center
07:21PM 40.1897 -76.6592 103° East 415 478 16,500 -1,560 Descending New York Center
07:22PM 40.1594 -76.5072 105° East 405 466 14,800 -1,620 Descending New York Center
07:23PM 40.1369 -76.3722 102° East 391 450 13,300 -1,500 Descending New York Center
07:24PM 40.1178 -76.2431 101° East 373 429 11,900 -1,200 Descending New York Center
07:25PM 40.1106 -76.1286 95° East 361 415 11,000 -1,140 Descending New York Center
07:26PM 40.0994 -76.0083 97° East 314 361 9,700 -1,380 Descending New York Center
07:27PM 40.0933 -75.9075 94° East 290 334 8,300 -900 Descending New York Center
07:28PM 40.0850 -75.8092 96° East 277 319 8,000 -180 Descending New York Center
07:29PM 40.0894 -75.7064 87° East 277 319 8,000  Level New York Center
07:30PM 40.1261 -75.6247 60° Northeast 257 296 8,000  Level New York Center
07:31PM 40.1581 -75.5592 57° Northeast 243 280 8,000 -720 Level New York Center
07:32PM 40.1569 -75.4803 91° East 201 231 6,600 -1,020 Descending New York Center
07:33PM 40.1042 -75.4469 154° Southeast 184 212 6,000 -300 Descending New York Center
07:34PM 40.0450 -75.4131 156° South 202 232 6,000  Level New York Center
07:35PM 39.9914 -75.3986 168° South 220 253 6,000  Level New York Center
07:36PM 39.9350 -75.4056 185° South 199 229 6,000  Level New York Center
07:37PM 39.9156 -75.4747 250° West 169 194 6,000 -480 Level New York Center
07:38PM 39.8961 -75.5411 249° West 187 215 5,100 -540 Descending New York Center
07:39PM 39.8847 -75.6133 258° West 200 230 5,000 -60 Descending New York Center
07:40PM 39.8500 -75.7333 249° West 205 236 5,000  Level Philadelphia TRACON
07:41PM 39.8000 -75.7500 194° South 197 227 5,000 -540 Level Philadelphia TRACON
07:42PM 39.7833 -75.7000 113° Southeast 187 215 4,000 -540 Descending Philadelphia TRACON
07:43PM 39.7833 -75.6333 90° East 181 208 4,000  Level Philadelphia TRACON
07:45PM 39.8000 -75.5667 72° East 183 211 4,000 -240 Level Philadelphia TRACON
07:46PM 39.8167 -75.5000 72° East 183 211 3,600 -720 Descending Philadelphia TRACON
07:46PM 39.8333 -75.4500 67° East 167 192 2,700 -900 Descending Philadelphia TRACON
07:47PM 39.8333 -75.4000 90° East 164 189 1,900 -840 Descending Philadelphia TRACON
07:48PM 39.8500 -75.3500 67° East 124 143 1,200 -720 Descending Philadelphia TRACON
07:49PM 39.8500 -75.3000 90° East 131 151 500 -720 Descending Philadelphia TRACON